sensor_id;sensor_type;location;lat;lon;timestamp;temperature;humidity
20712;DHT22;10517;50.742;4.224;2023-07-22T00:01:51;15.10;99.90
20712;DHT22;10517;50.742;4.224;2023-07-22T00:04:16;15.10;99.90
20712;DHT22;10517;50.742;4.224;2023-07-22T00:06:42;15.10;99.90
20712;DHT22;10517;50.742;4.224;2023-07-22T00:09:08;15.10;99.90
20712;DHT22;10517;50.742;4.224;2023-07-22T00:11:35;15.10;99.90
20712;DHT22;10517;50.742;4.224;2023-07-22T00:14:01;15.10;99.90
20712;DHT22;10517;50.742;4.224;2023-07-22T00:16:26;15.10;99.90
20712;DHT22;10517;50.742;4.224;2023-07-22T00:18:54;15.00;99.90
20712;DHT22;10517;50.742;4.224;2023-07-22T00:21:20;14.90;99.90
20712;DHT22;10517;50.742;4.224;2023-07-22T00:23:46;14.90;99.90
20712;DHT22;10517;50.742;4.224;2023-07-22T00:26:11;14.80;99.90
20712;DHT22;10517;50.742;4.224;2023-07-22T00:28:37;14.80;99.90
20712;DHT22;10517;50.742;4.224;2023-07-22T00:31:03;14.80;99.90
20712;DHT22;10517;50.742;4.224;2023-07-22T00:33:29;14.90;99.90
20712;DHT22;10517;50.742;4.224;2023-07-22T00:35:55;14.80;99.90
20712;DHT22;10517;50.742;4.224;2023-07-22T00:38:20;14.70;99.90
20712;DHT22;10517;50.742;4.224;2023-07-22T00:40:46;14.80;99.90
20712;DHT22;10517;50.742;4.224;2023-07-22T00:43:12;14.80;99.90
20712;DHT22;10517;50.742;4.224;2023-07-22T00:45:37;14.80;99.90
20712;DHT22;10517;50.742;4.224;2023-07-22T00:48:05;14.70;99.90
20712;DHT22;10517;50.742;4.224;2023-07-22T00:50:31;14.60;99.90
20712;DHT22;10517;50.742;4.224;2023-07-22T00:52:58;14.60;99.90
20712;DHT22;10517;50.742;4.224;2023-07-22T00:55:24;14.50;99.90
20712;DHT22;10517;50.742;4.224;2023-07-22T00:57:50;14.50;99.90
20712;DHT22;10517;50.742;4.224;2023-07-22T01:00:16;14.50;99.90
20712;DHT22;10517;50.742;4.224;2023-07-22T01:02:42;14.40;99.90
20712;DHT22;10517;50.742;4.224;2023-07-22T01:05:10;14.40;99.90
20712;DHT22;10517;50.742;4.224;2023-07-22T01:07:37;14.40;99.90
20712;DHT22;10517;50.742;4.224;2023-07-22T01:10:04;14.30;99.90
20712;DHT22;10517;50.742;4.224;2023-07-22T01:12:31;14.30;99.90
20712;DHT22;10517;50.742;4.224;2023-07-22T01:14:57;14.20;99.90
20712;DHT22;10517;50.742;4.224;2023-07-22T01:17:23;14.30;99.90
20712;DHT22;10517;50.742;4.224;2023-07-22T01:19:50;14.30;99.90
20712;DHT22;10517;50.742;4.224;2023-07-22T01:22:16;14.40;99.90
20712;DHT22;10517;50.742;4.224;2023-07-22T01:24:42;14.40;99.90
20712;DHT22;10517;50.742;4.224;2023-07-22T01:27:08;14.40;99.90
20712;DHT22;10517;50.742;4.224;2023-07-22T01:29:35;14.30;99.90
20712;DHT22;10517;50.742;4.224;2023-07-22T01:32:01;14.30;99.90
20712;DHT22;10517;50.742;4.224;2023-07-22T01:34:27;14.30;99.90
20712;DHT22;10517;50.742;4.224;2023-07-22T01:36:53;14.30;99.90
20712;DHT22;10517;50.742;4.224;2023-07-22T01:39:19;14.20;99.90
20712;DHT22;10517;50.742;4.224;2023-07-22T01:41:45;14.20;99.90
20712;DHT22;10517;50.742;4.224;2023-07-22T01:44:10;14.10;99.90
20712;DHT22;10517;50.742;4.224;2023-07-22T01:46:36;14.10;99.90
20712;DHT22;10517;50.742;4.224;2023-07-22T01:49:05;14.10;99.90
20712;DHT22;10517;50.742;4.224;2023-07-22T01:51:32;14.10;99.90
20712;DHT22;10517;50.742;4.224;2023-07-22T01:53:57;14.10;99.90
20712;DHT22;10517;50.742;4.224;2023-07-22T01:56:23;14.20;99.90
20712;DHT22;10517;50.742;4.224;2023-07-22T01:58:49;14.10;99.90
20712;DHT22;10517;50.742;4.224;2023-07-22T02:01:14;14.00;99.90
20712;DHT22;10517;50.742;4.224;2023-07-22T02:03:42;14.00;99.90
20712;DHT22;10517;50.742;4.224;2023-07-22T02:06:07;13.90;99.90
20712;DHT22;10517;50.742;4.224;2023-07-22T02:08:33;14.00;99.90
20712;DHT22;10517;50.742;4.224;2023-07-22T02:11:02;13.90;99.90
20712;DHT22;10517;50.742;4.224;2023-07-22T02:13:29;13.90;99.90
20712;DHT22;10517;50.742;4.224;2023-07-22T02:15:55;13.90;99.90
20712;DHT22;10517;50.742;4.224;2023-07-22T02:18:21;13.90;99.90
20712;DHT22;10517;50.742;4.224;2023-07-22T02:20:46;13.90;99.90
20712;DHT22;10517;50.742;4.224;2023-07-22T02:23:12;13.90;99.90
20712;DHT22;10517;50.742;4.224;2023-07-22T02:25:37;13.90;99.90
20712;DHT22;10517;50.742;4.224;2023-07-22T02:28:03;13.90;99.90
20712;DHT22;10517;50.742;4.224;2023-07-22T02:30:29;13.80;99.90
20712;DHT22;10517;50.742;4.224;2023-07-22T02:32:54;13.70;99.90
20712;DHT22;10517;50.742;4.224;2023-07-22T02:35:20;13.80;99.90
20712;DHT22;10517;50.742;4.224;2023-07-22T02:37:45;13.70;99.90
20712;DHT22;10517;50.742;4.224;2023-07-22T02:40:11;13.70;99.90
20712;DHT22;10517;50.742;4.224;2023-07-22T02:42:37;13.70;99.90
20712;DHT22;10517;50.742;4.224;2023-07-22T02:45:03;13.60;99.90
20712;DHT22;10517;50.742;4.224;2023-07-22T02:47:32;13.50;99.90
20712;DHT22;10517;50.742;4.224;2023-07-22T02:49:57;13.50;99.90
20712;DHT22;10517;50.742;4.224;2023-07-22T02:52:23;13.50;99.90
20712;DHT22;10517;50.742;4.224;2023-07-22T02:55:27;13.50;99.90
20712;DHT22;10517;50.742;4.224;2023-07-22T02:57:53;13.70;99.90
20712;DHT22;10517;50.742;4.224;2023-07-22T03:00:19;13.70;99.90
20712;DHT22;10517;50.742;4.224;2023-07-22T03:02:52;13.70;99.90
20712;DHT22;10517;50.742;4.224;2023-07-22T03:05:19;13.70;99.90
20712;DHT22;10517;50.742;4.224;2023-07-22T03:07:45;13.70;99.90
20712;DHT22;10517;50.742;4.224;2023-07-22T03:10:10;13.80;99.90
20712;DHT22;10517;50.742;4.224;2023-07-22T03:12:36;13.80;99.90
20712;DHT22;10517;50.742;4.224;2023-07-22T03:15:03;13.80;99.90
20712;DHT22;10517;50.742;4.224;2023-07-22T03:17:29;13.80;99.90
20712;DHT22;10517;50.742;4.224;2023-07-22T03:19:55;13.90;99.90
20712;DHT22;10517;50.742;4.224;2023-07-22T03:22:20;14.00;99.90
20712;DHT22;10517;50.742;4.224;2023-07-22T03:24:46;14.00;99.90
20712;DHT22;10517;50.742;4.224;2023-07-22T03:27:12;14.00;99.90
20712;DHT22;10517;50.742;4.224;2023-07-22T03:29:38;14.00;99.90
20712;DHT22;10517;50.742;4.224;2023-07-22T03:32:05;14.10;99.90
20712;DHT22;10517;50.742;4.224;2023-07-22T03:34:31;14.10;99.90
20712;DHT22;10517;50.742;4.224;2023-07-22T03:36:57;14.10;99.90
20712;DHT22;10517;50.742;4.224;2023-07-22T03:39:23;14.10;99.90
20712;DHT22;10517;50.742;4.224;2023-07-22T03:41:48;14.10;99.90
20712;DHT22;10517;50.742;4.224;2023-07-22T03:44:14;14.00;99.90
20712;DHT22;10517;50.742;4.224;2023-07-22T03:46:39;14.10;99.90
20712;DHT22;10517;50.742;4.224;2023-07-22T03:49:05;14.10;99.90
20712;DHT22;10517;50.742;4.224;2023-07-22T03:51:31;14.10;99.90
20712;DHT22;10517;50.742;4.224;2023-07-22T03:53:57;14.10;99.90
20712;DHT22;10517;50.742;4.224;2023-07-22T03:56:23;14.10;99.90
20712;DHT22;10517;50.742;4.224;2023-07-22T03:58:51;14.00;99.90
20712;DHT22;10517;50.742;4.224;2023-07-22T04:01:18;14.00;99.90
20712;DHT22;10517;50.742;4.224;2023-07-22T04:03:43;14.00;99.90
20712;DHT22;10517;50.742;4.224;2023-07-22T04:06:09;14.00;99.90
20712;DHT22;10517;50.742;4.224;2023-07-22T04:08:35;14.00;99.90
20712;DHT22;10517;50.742;4.224;2023-07-22T04:11:00;13.90;99.90
20712;DHT22;10517;50.742;4.224;2023-07-22T04:13:26;13.80;99.90
20712;DHT22;10517;50.742;4.224;2023-07-22T04:15:52;13.80;99.90
20712;DHT22;10517;50.742;4.224;2023-07-22T04:18:19;13.80;99.90
20712;DHT22;10517;50.742;4.224;2023-07-22T04:20:45;13.80;99.90
20712;DHT22;10517;50.742;4.224;2023-07-22T04:23:12;13.90;99.90
20712;DHT22;10517;50.742;4.224;2023-07-22T04:25:41;13.80;99.90
20712;DHT22;10517;50.742;4.224;2023-07-22T04:28:07;13.80;99.90
20712;DHT22;10517;50.742;4.224;2023-07-22T04:30:36;13.90;99.90
20712;DHT22;10517;50.742;4.224;2023-07-22T04:33:03;13.80;99.90
20712;DHT22;10517;50.742;4.224;2023-07-22T04:35:32;13.80;99.90
20712;DHT22;10517;50.742;4.224;2023-07-22T04:37:58;13.80;99.90
20712;DHT22;10517;50.742;4.224;2023-07-22T04:40:24;13.90;99.90
20712;DHT22;10517;50.742;4.224;2023-07-22T04:42:50;13.90;99.90
20712;DHT22;10517;50.742;4.224;2023-07-22T04:45:17;13.90;99.90
20712;DHT22;10517;50.742;4.224;2023-07-22T04:47:43;13.90;99.90
20712;DHT22;10517;50.742;4.224;2023-07-22T04:50:12;13.90;99.90
20712;DHT22;10517;50.742;4.224;2023-07-22T04:52:38;13.90;99.90
20712;DHT22;10517;50.742;4.224;2023-07-22T04:55:05;14.00;99.90
20712;DHT22;10517;50.742;4.224;2023-07-22T04:57:38;14.00;99.90
20712;DHT22;10517;50.742;4.224;2023-07-22T05:00:06;14.10;99.90
20712;DHT22;10517;50.742;4.224;2023-07-22T05:02:34;14.10;99.90
20712;DHT22;10517;50.742;4.224;2023-07-22T05:05:00;14.10;99.90
20712;DHT22;10517;50.742;4.224;2023-07-22T05:07:25;14.10;99.90
20712;DHT22;10517;50.742;4.224;2023-07-22T05:09:52;14.10;99.90
20712;DHT22;10517;50.742;4.224;2023-07-22T05:12:18;14.20;99.90
20712;DHT22;10517;50.742;4.224;2023-07-22T05:14:45;14.20;99.90
20712;DHT22;10517;50.742;4.224;2023-07-22T05:17:10;14.30;99.90
20712;DHT22;10517;50.742;4.224;2023-07-22T05:19:36;14.30;99.90
20712;DHT22;10517;50.742;4.224;2023-07-22T05:22:02;14.40;99.90
20712;DHT22;10517;50.742;4.224;2023-07-22T05:24:27;14.40;99.90
20712;DHT22;10517;50.742;4.224;2023-07-22T05:26:53;14.60;99.90
20712;DHT22;10517;50.742;4.224;2023-07-22T05:29:19;14.70;99.90
20712;DHT22;10517;50.742;4.224;2023-07-22T05:31:45;14.90;99.90
20712;DHT22;10517;50.742;4.224;2023-07-22T05:34:11;15.10;99.90
20712;DHT22;10517;50.742;4.224;2023-07-22T05:36:37;15.40;99.90
20712;DHT22;10517;50.742;4.224;2023-07-22T05:39:03;15.60;99.90
20712;DHT22;10517;50.742;4.224;2023-07-22T05:41:29;15.80;99.90
20712;DHT22;10517;50.742;4.224;2023-07-22T05:43:54;15.90;99.90
20712;DHT22;10517;50.742;4.224;2023-07-22T05:46:20;16.00;99.90
20712;DHT22;10517;50.742;4.224;2023-07-22T05:48:45;16.10;99.90
20712;DHT22;10517;50.742;4.224;2023-07-22T05:51:11;16.20;99.90
20712;DHT22;10517;50.742;4.224;2023-07-22T05:53:37;16.30;99.90
20712;DHT22;10517;50.742;4.224;2023-07-22T05:56:02;16.40;99.90
20712;DHT22;10517;50.742;4.224;2023-07-22T05:58:28;16.50;99.90
20712;DHT22;10517;50.742;4.224;2023-07-22T06:00:54;16.60;99.90
20712;DHT22;10517;50.742;4.224;2023-07-22T06:03:20;16.60;99.90
20712;DHT22;10517;50.742;4.224;2023-07-22T06:05:46;16.70;99.90
20712;DHT22;10517;50.742;4.224;2023-07-22T06:08:12;16.80;99.90
20712;DHT22;10517;50.742;4.224;2023-07-22T06:10:39;16.80;99.90
20712;DHT22;10517;50.742;4.224;2023-07-22T06:13:05;16.90;99.90
20712;DHT22;10517;50.742;4.224;2023-07-22T06:15:31;17.00;99.90
20712;DHT22;10517;50.742;4.224;2023-07-22T06:17:57;17.10;99.90
20712;DHT22;10517;50.742;4.224;2023-07-22T06:20:23;17.20;99.90
20712;DHT22;10517;50.742;4.224;2023-07-22T06:22:48;17.20;99.90
20712;DHT22;10517;50.742;4.224;2023-07-22T06:25:14;17.30;99.90
20712;DHT22;10517;50.742;4.224;2023-07-22T06:27:40;17.40;99.90
20712;DHT22;10517;50.742;4.224;2023-07-22T06:30:06;17.50;99.90
20712;DHT22;10517;50.742;4.224;2023-07-22T06:32:31;17.50;99.90
20712;DHT22;10517;50.742;4.224;2023-07-22T06:34:57;17.60;99.90
20712;DHT22;10517;50.742;4.224;2023-07-22T06:37:23;17.60;99.90
20712;DHT22;10517;50.742;4.224;2023-07-22T06:39:50;17.60;99.90
20712;DHT22;10517;50.742;4.224;2023-07-22T06:42:15;17.80;99.90
20712;DHT22;10517;50.742;4.224;2023-07-22T06:44:42;17.80;99.90
20712;DHT22;10517;50.742;4.224;2023-07-22T06:47:07;17.80;99.90
20712;DHT22;10517;50.742;4.224;2023-07-22T06:49:33;17.90;99.90
20712;DHT22;10517;50.742;4.224;2023-07-22T06:51:58;18.00;99.90
20712;DHT22;10517;50.742;4.224;2023-07-22T06:54:24;18.10;99.90
20712;DHT22;10517;50.742;4.224;2023-07-22T06:56:50;18.10;99.90
20712;DHT22;10517;50.742;4.224;2023-07-22T06:59:15;18.20;99.90
20712;DHT22;10517;50.742;4.224;2023-07-22T07:01:41;18.20;99.90
20712;DHT22;10517;50.742;4.224;2023-07-22T07:04:06;18.30;99.90
20712;DHT22;10517;50.742;4.224;2023-07-22T07:06:32;18.30;99.90
20712;DHT22;10517;50.742;4.224;2023-07-22T07:09:01;18.40;99.90
20712;DHT22;10517;50.742;4.224;2023-07-22T07:11:28;18.60;99.90
20712;DHT22;10517;50.742;4.224;2023-07-22T07:13:53;18.60;99.90
20712;DHT22;10517;50.742;4.224;2023-07-22T07:16:27;18.60;99.90
20712;DHT22;10517;50.742;4.224;2023-07-22T07:18:53;18.70;99.90
20712;DHT22;10517;50.742;4.224;2023-07-22T07:21:20;18.90;99.90
20712;DHT22;10517;50.742;4.224;2023-07-22T07:23:45;19.20;99.90
20712;DHT22;10517;50.742;4.224;2023-07-22T07:26:11;19.30;99.90
20712;DHT22;10517;50.742;4.224;2023-07-22T07:28:37;19.50;99.90
20712;DHT22;10517;50.742;4.224;2023-07-22T07:31:03;19.60;99.90
20712;DHT22;10517;50.742;4.224;2023-07-22T07:33:28;19.50;99.90
20712;DHT22;10517;50.742;4.224;2023-07-22T07:35:54;19.60;99.90
20712;DHT22;10517;50.742;4.224;2023-07-22T07:38:20;19.80;99.90
20712;DHT22;10517;50.742;4.224;2023-07-22T07:40:45;19.90;99.90
20712;DHT22;10517;50.742;4.224;2023-07-22T07:43:11;19.90;99.90
20712;DHT22;10517;50.742;4.224;2023-07-22T07:45:38;20.00;99.90
20712;DHT22;10517;50.742;4.224;2023-07-22T07:48:05;19.90;99.90
20712;DHT22;10517;50.742;4.224;2023-07-22T07:50:31;20.00;99.90
20712;DHT22;10517;50.742;4.224;2023-07-22T07:52:57;20.20;99.90
20712;DHT22;10517;50.742;4.224;2023-07-22T07:55:22;20.30;99.90
20712;DHT22;10517;50.742;4.224;2023-07-22T07:57:48;20.30;99.90
20712;DHT22;10517;50.742;4.224;2023-07-22T08:00:14;20.50;99.90
20712;DHT22;10517;50.742;4.224;2023-07-22T08:02:40;20.60;99.90
20712;DHT22;10517;50.742;4.224;2023-07-22T08:05:05;20.60;99.90
20712;DHT22;10517;50.742;4.224;2023-07-22T08:07:31;20.80;99.90
20712;DHT22;10517;50.742;4.224;2023-07-22T08:09:57;20.90;99.90
20712;DHT22;10517;50.742;4.224;2023-07-22T08:12:24;20.90;99.90
20712;DHT22;10517;50.742;4.224;2023-07-22T08:14:49;21.00;99.90
20712;DHT22;10517;50.742;4.224;2023-07-22T08:17:15;21.10;99.90
20712;DHT22;10517;50.742;4.224;2023-07-22T08:19:40;21.10;99.90
20712;DHT22;10517;50.742;4.224;2023-07-22T08:22:06;21.20;99.90
20712;DHT22;10517;50.742;4.224;2023-07-22T08:24:32;21.30;99.90
20712;DHT22;10517;50.742;4.224;2023-07-22T08:26:58;21.40;99.90
20712;DHT22;10517;50.742;4.224;2023-07-22T08:29:24;21.50;99.90
20712;DHT22;10517;50.742;4.224;2023-07-22T08:31:49;21.50;99.90
20712;DHT22;10517;50.742;4.224;2023-07-22T08:34:15;21.60;99.90
20712;DHT22;10517;50.742;4.224;2023-07-22T08:36:41;21.60;99.90
20712;DHT22;10517;50.742;4.224;2023-07-22T08:39:07;21.60;99.90
20712;DHT22;10517;50.742;4.224;2023-07-22T08:41:33;21.50;99.90
20712;DHT22;10517;50.742;4.224;2023-07-22T08:44:00;21.50;99.90
20712;DHT22;10517;50.742;4.224;2023-07-22T08:46:28;21.50;99.90
20712;DHT22;10517;50.742;4.224;2023-07-22T08:48:57;21.50;99.90
20712;DHT22;10517;50.742;4.224;2023-07-22T08:51:25;21.60;99.90
20712;DHT22;10517;50.742;4.224;2023-07-22T08:53:54;21.70;99.90
20712;DHT22;10517;50.742;4.224;2023-07-22T08:56:24;21.80;99.90
20712;DHT22;10517;50.742;4.224;2023-07-22T08:58:51;21.80;99.90
20712;DHT22;10517;50.742;4.224;2023-07-22T09:01:18;21.90;99.90
20712;DHT22;10517;50.742;4.224;2023-07-22T09:03:43;21.80;99.90
20712;DHT22;10517;50.742;4.224;2023-07-22T09:06:10;21.90;99.90
20712;DHT22;10517;50.742;4.224;2023-07-22T09:08:36;22.00;99.90
20712;DHT22;10517;50.742;4.224;2023-07-22T09:11:04;22.00;99.90
20712;DHT22;10517;50.742;4.224;2023-07-22T09:13:30;22.00;99.90
20712;DHT22;10517;50.742;4.224;2023-07-22T09:15:57;21.90;99.90
20712;DHT22;10517;50.742;4.224;2023-07-22T09:18:24;21.90;99.90
20712;DHT22;10517;50.742;4.224;2023-07-22T09:20:50;21.90;99.90
20712;DHT22;10517;50.742;4.224;2023-07-22T09:23:16;22.00;99.90
20712;DHT22;10517;50.742;4.224;2023-07-22T09:25:42;22.00;99.90
20712;DHT22;10517;50.742;4.224;2023-07-22T09:28:08;22.10;99.90
20712;DHT22;10517;50.742;4.224;2023-07-22T09:30:36;22.10;99.90
20712;DHT22;10517;50.742;4.224;2023-07-22T09:33:04;22.20;99.90
20712;DHT22;10517;50.742;4.224;2023-07-22T09:35:50;22.30;99.90
20712;DHT22;10517;50.742;4.224;2023-07-22T09:38:23;22.40;99.90
20712;DHT22;10517;50.742;4.224;2023-07-22T09:40:49;22.40;99.90
20712;DHT22;10517;50.742;4.224;2023-07-22T09:43:14;22.50;99.90
20712;DHT22;10517;50.742;4.224;2023-07-22T09:45:40;22.40;99.90
20712;DHT22;10517;50.742;4.224;2023-07-22T09:48:06;22.40;99.90
20712;DHT22;10517;50.742;4.224;2023-07-22T09:50:36;22.30;99.90
20712;DHT22;10517;50.742;4.224;2023-07-22T09:53:02;22.40;99.90
20712;DHT22;10517;50.742;4.224;2023-07-22T09:55:30;22.30;99.90
20712;DHT22;10517;50.742;4.224;2023-07-22T09:58:01;22.40;99.90
20712;DHT22;10517;50.742;4.224;2023-07-22T10:00:34;22.40;99.90
20712;DHT22;10517;50.742;4.224;2023-07-22T10:03:01;22.60;99.90
20712;DHT22;10517;50.742;4.224;2023-07-22T10:05:28;22.60;99.90
20712;DHT22;10517;50.742;4.224;2023-07-22T10:07:58;22.60;99.90
20712;DHT22;10517;50.742;4.224;2023-07-22T10:10:32;22.70;99.90
20712;DHT22;10517;50.742;4.224;2023-07-22T10:12:58;22.80;99.90
20712;DHT22;10517;50.742;4.224;2023-07-22T10:15:25;22.90;99.90
20712;DHT22;10517;50.742;4.224;2023-07-22T10:17:53;22.90;99.90
20712;DHT22;10517;50.742;4.224;2023-07-22T10:20:20;23.10;99.90
20712;DHT22;10517;50.742;4.224;2023-07-22T10:22:47;23.20;99.90
20712;DHT22;10517;50.742;4.224;2023-07-22T10:25:15;23.40;99.90
20712;DHT22;10517;50.742;4.224;2023-07-22T10:27:41;23.50;99.90
20712;DHT22;10517;50.742;4.224;2023-07-22T10:30:14;23.60;99.90
20712;DHT22;10517;50.742;4.224;2023-07-22T10:32:42;24.00;99.90
20712;DHT22;10517;50.742;4.224;2023-07-22T10:35:09;24.20;99.90
20712;DHT22;10517;50.742;4.224;2023-07-22T10:37:40;24.40;99.90
20712;DHT22;10517;50.742;4.224;2023-07-22T10:40:28;24.60;99.90
20712;DHT22;10517;50.742;4.224;2023-07-22T10:43:04;24.80;99.90
20712;DHT22;10517;50.742;4.224;2023-07-22T10:45:34;24.70;99.90
20712;DHT22;10517;50.742;4.224;2023-07-22T10:48:09;24.90;99.90
20712;DHT22;10517;50.742;4.224;2023-07-22T10:50:44;24.90;99.90
20712;DHT22;10517;50.742;4.224;2023-07-22T10:53:13;24.80;99.90
20712;DHT22;10517;50.742;4.224;2023-07-22T11:04:09;23.60;99.90
20712;DHT22;10517;50.742;4.224;2023-07-22T11:09:37;23.40;99.90
20712;DHT22;10517;50.742;4.224;2023-07-22T11:14:48;23.50;99.90
20712;DHT22;10517;50.742;4.224;2023-07-22T11:17:15;23.60;99.90
20712;DHT22;10517;50.742;4.224;2023-07-22T11:19:41;23.80;99.90
20712;DHT22;10517;50.742;4.224;2023-07-22T11:22:07;24.20;99.90
20712;DHT22;10517;50.742;4.224;2023-07-22T11:24:34;24.30;99.90
20712;DHT22;10517;50.742;4.224;2023-07-22T11:27:04;24.10;99.90
20712;DHT22;10517;50.742;4.224;2023-07-22T11:29:30;24.30;99.90
20712;DHT22;10517;50.742;4.224;2023-07-22T11:31:56;24.90;99.90
20712;DHT22;10517;50.742;4.224;2023-07-22T11:34:23;25.20;99.90
20712;DHT22;10517;50.742;4.224;2023-07-22T11:36:51;25.10;99.90
20712;DHT22;10517;50.742;4.224;2023-07-22T11:39:19;25.10;99.90
20712;DHT22;10517;50.742;4.224;2023-07-22T11:41:45;25.00;99.90
20712;DHT22;10517;50.742;4.224;2023-07-22T11:44:14;25.20;99.90
20712;DHT22;10517;50.742;4.224;2023-07-22T11:49:25;25.60;99.90
20712;DHT22;10517;50.742;4.224;2023-07-22T11:52:03;25.70;99.90
20712;DHT22;10517;50.742;4.224;2023-07-22T11:54:31;25.50;99.90
20712;DHT22;10517;50.742;4.224;2023-07-22T11:56:57;25.50;99.90
20712;DHT22;10517;50.742;4.224;2023-07-22T11:59:34;25.40;99.90
20712;DHT22;10517;50.742;4.224;2023-07-22T12:02:00;25.50;99.90
20712;DHT22;10517;50.742;4.224;2023-07-22T12:04:26;25.70;99.90
20712;DHT22;10517;50.742;4.224;2023-07-22T12:06:52;25.70;99.90
20712;DHT22;10517;50.742;4.224;2023-07-22T12:09:17;26.10;99.90
20712;DHT22;10517;50.742;4.224;2023-07-22T12:11:43;26.20;99.90
20712;DHT22;10517;50.742;4.224;2023-07-22T12:14:12;26.50;99.90
20712;DHT22;10517;50.742;4.224;2023-07-22T12:16:41;26.40;99.90
20712;DHT22;10517;50.742;4.224;2023-07-22T12:19:08;26.50;99.90
20712;DHT22;10517;50.742;4.224;2023-07-22T12:21:35;26.70;99.90
20712;DHT22;10517;50.742;4.224;2023-07-22T12:24:01;27.00;99.90
20712;DHT22;10517;50.742;4.224;2023-07-22T12:26:27;27.40;99.90
20712;DHT22;10517;50.742;4.224;2023-07-22T12:28:53;27.60;99.90
20712;DHT22;10517;50.742;4.224;2023-07-22T12:31:18;27.70;99.90
20712;DHT22;10517;50.742;4.224;2023-07-22T12:33:44;27.60;99.90
20712;DHT22;10517;50.742;4.224;2023-07-22T12:36:10;27.30;99.90
20712;DHT22;10517;50.742;4.224;2023-07-22T12:38:36;27.40;99.90
20712;DHT22;10517;50.742;4.224;2023-07-22T12:41:02;27.60;99.90
20712;DHT22;10517;50.742;4.224;2023-07-22T12:43:28;27.90;99.90
20712;DHT22;10517;50.742;4.224;2023-07-22T12:45:54;27.90;99.90
20712;DHT22;10517;50.742;4.224;2023-07-22T12:48:20;27.70;99.90
20712;DHT22;10517;50.742;4.224;2023-07-22T12:50:46;27.30;99.90
20712;DHT22;10517;50.742;4.224;2023-07-22T12:53:13;27.50;99.90
20712;DHT22;10517;50.742;4.224;2023-07-22T12:55:39;27.30;99.90
20712;DHT22;10517;50.742;4.224;2023-07-22T12:58:05;27.40;99.90
20712;DHT22;10517;50.742;4.224;2023-07-22T13:00:30;27.20;99.90
20712;DHT22;10517;50.742;4.224;2023-07-22T13:02:56;26.80;99.90
20712;DHT22;10517;50.742;4.224;2023-07-22T13:05:22;26.70;99.90
20712;DHT22;10517;50.742;4.224;2023-07-22T13:07:48;26.70;99.90
20712;DHT22;10517;50.742;4.224;2023-07-22T13:10:15;26.80;99.90
20712;DHT22;10517;50.742;4.224;2023-07-22T13:12:43;27.00;99.90
20712;DHT22;10517;50.742;4.224;2023-07-22T13:15:09;27.20;99.90
20712;DHT22;10517;50.742;4.224;2023-07-22T13:17:35;27.50;99.90
20712;DHT22;10517;50.742;4.224;2023-07-22T13:20:02;28.00;99.90
20712;DHT22;10517;50.742;4.224;2023-07-22T13:22:30;28.30;99.90
20712;DHT22;10517;50.742;4.224;2023-07-22T13:24:56;29.10;99.90
20712;DHT22;10517;50.742;4.224;2023-07-22T13:27:21;30.00;99.90
20712;DHT22;10517;50.742;4.224;2023-07-22T13:29:47;30.40;97.70
20712;DHT22;10517;50.742;4.224;2023-07-22T13:32:12;30.00;98.30
20712;DHT22;10517;50.742;4.224;2023-07-22T13:34:38;29.20;97.80
20712;DHT22;10517;50.742;4.224;2023-07-22T13:37:04;27.70;97.20
20712;DHT22;10517;50.742;4.224;2023-07-22T13:39:29;26.90;99.60
20712;DHT22;10517;50.742;4.224;2023-07-22T13:41:55;26.30;99.60
20712;DHT22;10517;50.742;4.224;2023-07-22T13:44:20;26.00;99.90
20712;DHT22;10517;50.742;4.224;2023-07-22T13:46:46;25.60;99.90
20712;DHT22;10517;50.742;4.224;2023-07-22T13:49:12;25.20;99.90
20712;DHT22;10517;50.742;4.224;2023-07-22T13:51:37;24.80;99.90
20712;DHT22;10517;50.742;4.224;2023-07-22T13:54:03;24.40;99.90
20712;DHT22;10517;50.742;4.224;2023-07-22T13:56:28;24.10;99.90
20712;DHT22;10517;50.742;4.224;2023-07-22T13:58:54;23.90;99.90
20712;DHT22;10517;50.742;4.224;2023-07-22T14:01:20;23.70;99.90
20712;DHT22;10517;50.742;4.224;2023-07-22T14:03:46;23.40;99.90
20712;DHT22;10517;50.742;4.224;2023-07-22T14:06:11;23.30;99.90
20712;DHT22;10517;50.742;4.224;2023-07-22T14:08:37;23.30;99.90
20712;DHT22;10517;50.742;4.224;2023-07-22T14:11:04;23.30;99.90
20712;DHT22;10517;50.742;4.224;2023-07-22T14:13:29;23.30;99.90
20712;DHT22;10517;50.742;4.224;2023-07-22T14:15:55;23.40;99.90
20712;DHT22;10517;50.742;4.224;2023-07-22T14:18:20;23.50;99.90
20712;DHT22;10517;50.742;4.224;2023-07-22T14:20:46;23.50;99.90
20712;DHT22;10517;50.742;4.224;2023-07-22T14:23:12;23.40;99.90
20712;DHT22;10517;50.742;4.224;2023-07-22T14:25:38;23.50;99.90
20712;DHT22;10517;50.742;4.224;2023-07-22T14:28:03;23.50;99.90
20712;DHT22;10517;50.742;4.224;2023-07-22T14:30:29;23.50;99.90
20712;DHT22;10517;50.742;4.224;2023-07-22T14:32:55;24.00;99.90
20712;DHT22;10517;50.742;4.224;2023-07-22T14:35:21;24.70;99.90
20712;DHT22;10517;50.742;4.224;2023-07-22T14:37:47;25.30;99.90
20712;DHT22;10517;50.742;4.224;2023-07-22T14:40:13;26.10;99.90
20712;DHT22;10517;50.742;4.224;2023-07-22T14:42:39;26.60;99.90
20712;DHT22;10517;50.742;4.224;2023-07-22T14:45:06;27.30;99.90
20712;DHT22;10517;50.742;4.224;2023-07-22T14:47:32;27.30;99.90
20712;DHT22;10517;50.742;4.224;2023-07-22T14:49:57;27.50;99.90
20712;DHT22;10517;50.742;4.224;2023-07-22T14:52:23;28.00;99.90
20712;DHT22;10517;50.742;4.224;2023-07-22T14:54:49;27.40;99.90
20712;DHT22;10517;50.742;4.224;2023-07-22T14:57:16;26.90;99.90
20712;DHT22;10517;50.742;4.224;2023-07-22T14:59:42;26.90;99.90
20712;DHT22;10517;50.742;4.224;2023-07-22T15:02:08;27.50;99.90
20712;DHT22;10517;50.742;4.224;2023-07-22T15:04:33;27.70;99.90
20712;DHT22;10517;50.742;4.224;2023-07-22T15:06:59;27.20;99.90
20712;DHT22;10517;50.742;4.224;2023-07-22T15:09:25;26.70;99.90
20712;DHT22;10517;50.742;4.224;2023-07-22T15:11:50;26.50;99.90
20712;DHT22;10517;50.742;4.224;2023-07-22T15:14:16;26.50;99.90
20712;DHT22;10517;50.742;4.224;2023-07-22T15:16:41;26.60;99.90
20712;DHT22;10517;50.742;4.224;2023-07-22T15:19:07;26.40;99.90
20712;DHT22;10517;50.742;4.224;2023-07-22T15:21:33;26.00;99.90
20712;DHT22;10517;50.742;4.224;2023-07-22T15:23:59;25.50;99.90
20712;DHT22;10517;50.742;4.224;2023-07-22T15:26:24;25.30;99.90
20712;DHT22;10517;50.742;4.224;2023-07-22T15:28:50;25.20;99.90
20712;DHT22;10517;50.742;4.224;2023-07-22T15:31:17;25.10;99.90
20712;DHT22;10517;50.742;4.224;2023-07-22T15:33:43;25.20;99.90
20712;DHT22;10517;50.742;4.224;2023-07-22T15:36:09;25.20;99.90
20712;DHT22;10517;50.742;4.224;2023-07-22T15:38:34;25.30;99.90
20712;DHT22;10517;50.742;4.224;2023-07-22T15:41:00;25.10;99.90
20712;DHT22;10517;50.742;4.224;2023-07-22T15:43:27;25.20;99.90